Time;durP1;ratioP1;P1;durP2;ratioP2;P2;SDS_P1;SDS_P2;PMS_P1;PMS_P2;Temp;Humidity;BMP_temperature;BMP_pressure;BME280_temperature;BME280_humidity;BME280_pressure;Samples;Min_cycle;Max_cycle;Signal;HPM_P1;HPM_P2
2024/04/15 00:00:45;;;;;;;8.40;1.67;;;9.70;99.90;;;13.93;58.77;100702.72;5346368;26;20317;-75
2024/04/15 00:03:11;;;;;;;7.35;1.52;;;9.60;99.90;;;14.04;57.97;100685.41;5356757;26;19996;-75
2024/04/15 00:05:38;;;;;;;6.28;1.40;;;9.50;99.90;;;13.78;56.08;100662.88;5363688;26;20048;-75
2024/04/15 00:08:04;;;;;;;6.25;1.27;;;9.50;99.90;;;13.51;56.06;100677.03;5367382;26;20000;-75
2024/04/15 00:10:30;;;;;;;13.82;1.52;;;9.50;99.90;;;13.51;54.86;100662.47;5358734;26;20005;-73
2024/04/15 00:12:56;;;;;;;12.27;1.95;;;9.60;99.90;;;13.00;55.33;100676.50;5351484;26;19997;-74
2024/04/15 00:15:21;;;;;;;5.90;1.10;;;9.60;99.90;;;13.95;54.76;100653.94;5347248;26;20033;-74
2024/04/15 00:17:49;;;;;;;5.28;1.30;;;9.60;99.90;;;14.11;54.96;100649.63;5361274;26;19996;-74
2024/04/15 00:20:15;;;;;;;5.13;1.25;;;9.60;99.90;;;14.24;54.81;100667.75;5361157;26;20000;-74
2024/04/15 00:22:40;;;;;;;8.35;1.80;;;9.60;99.90;;;14.00;54.63;100653.19;5360383;26;19996;-73
2024/04/15 00:25:06;;;;;;;5.88;1.30;;;9.60;99.90;;;13.97;58.37;100668.25;5362174;26;20353;-73
2024/04/15 00:27:32;;;;;;;6.75;1.40;;;9.60;99.90;;;14.03;60.30;100671.91;5358281;26;20004;-74
2024/04/15 00:29:57;;;;;;;7.63;1.77;;;9.50;99.90;;;14.07;60.52;100667.66;5346689;26;20001;-74
2024/04/15 00:32:23;;;;;;;5.93;1.40;;;9.50;99.90;;;13.59;63.14;100675.00;5347282;26;20401;-73
2024/04/15 00:34:52;;;;;;;6.97;1.35;;;9.40;99.90;;;13.14;64.21;100662.63;5354605;26;20015;-73
2024/04/15 00:37:17;;;;;;;6.93;1.50;;;9.30;99.90;;;12.93;68.99;100657.44;5360658;26;19993;-73
2024/04/15 00:39:43;;;;;;;5.75;1.40;;;9.20;99.90;;;12.96;74.30;100658.84;5359704;26;20492;-73
2024/04/15 00:42:09;;;;;;;7.57;1.70;;;9.20;99.90;;;13.07;73.96;100627.09;5355203;26;20036;-74
2024/04/15 00:44:35;;;;;;;8.32;1.75;;;9.10;99.90;;;13.28;72.49;100631.22;5346132;26;20416;-73
2024/04/15 00:47:06;;;;;;;8.07;1.50;;;9.10;99.90;;;13.04;70.91;100608.41;5346122;26;19996;-73
2024/04/15 00:49:33;;;;;;;7.18;1.48;;;9.00;99.90;;;12.93;71.98;100613.63;5395211;26;19996;-74
2024/04/15 00:52:02;;;;;;;5.80;1.48;;;9.00;99.90;;;13.15;72.30;100625.94;5398169;26;20016;-74
2024/04/15 00:54:31;;;;;;;7.68;1.77;;;9.00;99.90;;;13.24;66.79;100608.94;5358116;26;20013;-74
2024/04/15 00:56:59;;;;;;;8.25;1.30;;;9.00;99.90;;;13.35;62.52;100585.34;5367217;26;20001;-75
2024/04/15 00:59:26;;;;;;;5.80;1.38;;;9.10;99.90;;;13.49;63.29;100585.13;5373073;26;20019;-74
2024/04/15 01:01:54;;;;;;;6.78;1.20;;;9.10;99.90;;;13.53;64.65;100591.84;5343889;26;20016;-74
2024/04/15 01:04:20;;;;;;;5.97;1.23;;;9.10;99.90;;;12.99;68.72;100602.78;5355234;26;20069;-74
2024/04/15 01:06:46;;;;;;;5.88;1.30;;;9.10;99.90;;;13.48;69.75;100609.00;5351304;26;20052;-73
2024/04/15 01:09:11;;;;;;;7.93;1.30;;;9.10;99.90;;;13.47;68.71;100592.78;5357008;26;20012;-73
2024/04/15 01:11:38;;;;;;;6.28;1.40;;;9.00;99.90;;;13.49;66.18;100588.72;5388940;26;20035;-73
2024/04/15 01:14:04;;;;;;;6.47;1.30;;;8.90;99.90;;;13.37;66.11;100585.94;5359026;26;20034;-73
2024/04/15 01:16:37;;;;;;;7.10;1.33;;;8.80;99.90;;;13.30;66.68;100571.53;5351630;26;20008;-74
2024/04/15 01:19:03;;;;;;;6.07;1.73;;;8.70;99.90;;;13.16;66.56;100587.38;5348323;26;20445;-73
2024/04/15 01:21:29;;;;;;;6.88;1.70;;;8.70;99.90;;;12.79;69.36;100591.09;5349848;26;20008;-74
2024/04/15 01:23:58;;;;;;;7.35;1.60;;;8.60;99.90;;;12.77;68.51;100582.28;5347057;26;20428;-73
2024/04/15 01:26:24;;;;;;;7.65;2.17;;;8.60;99.90;;;12.61;68.33;100574.69;5355414;26;20320;-73
2024/04/15 01:28:49;;;;;;;8.20;1.33;;;8.60;99.90;;;12.55;69.33;100581.13;5388261;26;20004;-73
2024/04/15 01:31:15;;;;;;;7.75;1.35;;;8.60;99.90;;;12.63;70.11;100578.03;5357723;26;20001;-73
2024/04/15 01:33:41;;;;;;;6.25;1.48;;;8.60;99.90;;;12.76;69.94;100574.28;5360810;26;20008;-73
2024/04/15 01:36:07;;;;;;;4.93;1.20;;;8.50;99.90;;;12.86;70.18;100573.72;5359031;26;20040;-73
2024/04/15 01:38:32;;;;;;;7.60;1.60;;;8.50;99.90;;;12.80;72.37;100573.59;5373295;26;19993;-74
2024/04/15 01:40:58;;;;;;;6.25;1.42;;;8.40;99.90;;;12.73;69.33;100566.53;5373245;26;20083;-73
2024/04/15 01:43:24;;;;;;;5.90;1.17;;;8.40;99.90;;;12.40;69.12;100565.94;5402310;26;20102;-74
2024/04/15 01:45:50;;;;;;;5.78;1.48;;;8.30;99.90;;;12.38;69.21;100568.06;5345244;26;20484;-74
2024/04/15 01:48:15;;;;;;;6.50;1.40;;;8.30;99.90;;;12.24;70.03;100556.47;5369041;26;19993;-73
2024/04/15 01:50:41;;;;;;;6.93;1.27;;;8.30;99.90;;;12.41;70.67;100555.84;5346086;26;20015;-73
2024/04/15 01:53:07;;;;;;;5.00;1.45;;;8.20;99.90;;;12.20;71.97;100556.09;5362841;26;20009;-73
2024/04/15 01:55:33;;;;;;;4.78;1.30;;;8.20;99.90;;;12.12;74.34;100566.50;5354606;26;20320;-73
2024/04/15 01:57:59;;;;;;;8.82;1.73;;;8.10;99.90;;;11.82;76.80;100568.06;5349966;26;20008;-73
2024/04/15 02:00:25;;;;;;;6.55;1.80;;;8.10;99.90;;;11.78;80.09;100564.13;5351899;26;20133;-74
2024/04/15 02:02:51;;;;;;;6.15;1.40;;;8.00;99.90;;;11.80;82.97;100562.84;5343508;26;20033;-74
2024/04/15 02:05:17;;;;;;;7.45;1.73;;;7.90;99.90;;;11.68;85.14;100566.56;5344982;26;20001;-74
2024/04/15 02:07:42;;;;;;;6.80;1.63;;;7.90;99.90;;;11.51;86.23;100539.81;5354307;26;20008;-74
2024/04/15 02:10:08;;;;;;;6.80;1.75;;;7.80;99.90;;;11.63;89.72;100551.66;5353314;26;19997;-74
2024/04/15 02:12:34;;;;;;;5.53;1.60;;;7.80;99.90;;;11.74;90.94;100538.31;5353140;26;20318;-74
2024/04/15 02:15:00;;;;;;;7.63;1.70;;;7.80;99.90;;;11.61;91.61;100537.38;5363388;26;20004;-74
2024/04/15 02:17:26;;;;;;;9.23;1.73;;;7.70;99.90;;;11.83;92.09;100533.41;5357997;26;20023;-74
2024/04/15 02:19:51;;;;;;;5.57;1.63;;;7.60;99.90;;;11.26;92.78;100521.56;5358398;26;20335;-74
2024/04/15 02:22:17;;;;;;;8.82;2.25;;;7.60;99.90;;;11.71;94.35;100520.47;5349482;26;19996;-74
2024/04/15 02:24:43;;;;;;;5.70;2.40;;;7.60;99.90;;;11.64;93.01;100514.25;5354713;26;20012;-74
2024/04/15 02:27:08;;;;;;;6.85;1.70;;;7.60;99.90;;;11.55;93.67;100504.69;5360681;26;22571;-74
2024/04/15 02:29:34;;;;;;;5.93;1.58;;;7.60;99.90;;;11.69;95.02;100506.19;5350743;26;20011;-74
2024/04/15 02:32:00;;;;;;;8.43;1.83;;;7.50;99.90;;;11.61;95.75;100503.78;5358469;26;20361;-74
2024/04/15 02:34:27;;;;;;;6.70;1.70;;;7.50;99.90;;;11.68;95.64;100500.97;5348081;26;20017;-74
2024/04/15 02:36:53;;;;;;;8.18;1.88;;;7.50;99.90;;;11.64;97.11;100497.84;5341432;26;20012;-74
2024/04/15 02:39:18;;;;;;;7.03;1.95;;;7.50;99.90;;;11.65;96.94;100500.34;5359590;26;20036;-74
2024/04/15 02:41:44;;;;;;;6.63;1.80;;;7.50;99.90;;;11.76;96.30;100501.47;5350474;26;20008;-74
2024/04/15 02:44:10;;;;;;;7.65;1.83;;;7.40;99.90;;;11.74;98.01;100489.13;5351099;26;20041;-74
2024/04/15 02:46:35;;;;;;;11.60;1.90;;;7.40;99.90;;;11.82;96.81;100488.00;5348294;26;20046;-74
2024/04/15 02:49:01;;;;;;;7.88;2.00;;;7.50;99.90;;;11.82;96.44;100488.00;5388212;26;20025;-74
2024/04/15 02:51:27;;;;;;;6.93;2.00;;;7.50;99.90;;;11.27;97.36;100476.81;5367280;26;20008;-74
2024/04/15 02:53:52;;;;;;;7.00;1.83;;;7.50;99.90;;;11.73;93.50;100471.88;5359887;26;20033;-74
2024/04/15 02:56:18;;;;;;;6.07;1.70;;;7.60;99.90;;;12.00;91.30;100470.72;5347961;26;20029;-74
2024/04/15 02:58:44;;;;;;;6.75;1.50;;;7.60;99.90;;;11.88;91.07;100460.56;5413806;26;20029;-74
2024/04/15 03:01:09;;;;;;;7.43;1.83;;;7.60;99.90;;;12.05;89.28;100460.78;5363065;26;20039;-74
2024/04/15 03:03:35;;;;;;;8.50;1.80;;;7.50;99.90;;;12.15;87.73;100452.03;5371811;26;19992;-74
2024/04/15 03:06:01;;;;;;;5.75;1.65;;;7.50;99.90;;;12.06;88.25;100442.47;5357301;26;20032;-74
2024/04/15 03:08:26;;;;;;;8.40;1.80;;;7.60;99.90;;;12.19;87.07;100436.00;5405329;26;20445;-74
2024/04/15 03:10:52;;;;;;;9.65;1.90;;;7.60;99.90;;;12.10;87.40;100440.13;5358767;26;20407;-74
2024/04/15 03:13:18;;;;;;;9.05;2.00;;;7.60;99.90;;;12.15;86.81;100429.31;5347899;26;19996;-74
2024/04/15 03:15:53;;;;;;;5.75;1.65;;;7.60;99.90;;;12.21;87.06;100429.22;5358740;26;20646;-74
2024/04/15 03:18:19;;;;;;;6.70;2.13;;;7.60;99.90;;;12.19;86.09;100425.88;5367524;26;20383;-73
2024/04/15 03:20:44;;;;;;;8.63;2.03;;;7.60;99.90;;;12.22;85.84;100419.97;5354030;26;20030;-74
2024/04/15 03:23:10;;;;;;;6.53;1.70;;;7.60;99.90;;;12.29;86.00;100413.53;5357188;26;20082;-74
2024/04/15 03:25:36;;;;;;;7.50;1.67;;;7.60;99.90;;;12.24;86.10;100414.25;5348468;26;20339;-74
2024/04/15 03:28:01;;;;;;;7.38;1.70;;;7.60;99.90;;;12.33;86.33;100412.84;5375193;26;19993;-75
2024/04/15 03:30:27;;;;;;;6.75;1.80;;;7.60;99.90;;;12.27;86.48;100404.75;5346122;26;19997;-74
2024/04/15 03:32:53;;;;;;;7.18;1.77;;;7.60;99.90;;;12.29;88.53;100411.63;5404956;26;20012;-74
2024/04/15 03:35:19;;;;;;;8.13;2.15;;;7.60;99.90;;;12.26;88.79;100401.16;5386669;26;20023;-74
2024/04/15 03:37:45;;;;;;;6.10;1.90;;;7.70;99.90;;;12.32;91.15;100402.13;5374919;26;20395;-74
2024/04/15 03:40:11;;;;;;;6.13;1.70;;;7.70;99.90;;;12.28;92.04;100400.94;5355082;26;20079;-74
2024/04/15 03:42:36;;;;;;;7.88;1.80;;;7.70;99.90;;;12.24;91.66;100397.81;5359745;26;20037;-74
2024/04/15 03:45:03;;;;;;;5.72;1.67;;;7.70;99.90;;;12.19;90.71;100381.28;5352548;26;20332;-74
2024/04/15 03:47:28;;;;;;;8.13;2.42;;;7.70;99.90;;;12.25;90.61;100383.09;5352732;26;20004;-74
2024/04/15 03:49:54;;;;;;;5.70;2.00;;;7.70;99.90;;;11.86;93.58;100386.16;5358055;26;20001;-74
2024/04/15 03:52:20;;;;;;;6.75;1.58;;;7.80;99.90;;;11.97;93.70;100383.72;5363371;26;20071;-74
2024/04/15 03:54:46;;;;;;;7.93;1.98;;;7.80;99.90;;;12.10;92.58;100372.59;5353971;26;20036;-74
2024/04/15 03:57:12;;;;;;;6.93;2.47;;;7.70;99.90;;;12.25;92.15;100371.31;5356986;26;20443;-74
2024/04/15 03:59:38;;;;;;;6.93;1.95;;;7.70;99.90;;;11.94;92.46;100354.94;5361229;26;20001;-74
2024/04/15 04:02:04;;;;;;;6.45;1.67;;;7.70;99.90;;;12.17;91.47;100365.09;5352421;26;20032;-74
2024/04/15 04:04:31;;;;;;;8.13;1.90;;;7.70;99.90;;;12.26;91.43;100357.41;5374121;26;20001;-74
2024/04/15 04:07:01;;;;;;;6.88;1.90;;;7.70;99.90;;;12.31;89.93;100348.50;5373524;26;20008;-73
2024/04/15 04:09:26;;;;;;;7.28;1.80;;;7.80;99.90;;;12.30;88.83;100352.31;5359369;26;20003;-74
2024/04/15 04:11:53;;;;;;;7.30;1.83;;;7.80;99.90;;;12.29;89.64;100345.16;5348810;26;20008;-74
2024/04/15 04:14:18;;;;;;;8.93;2.20;;;7.80;99.90;;;12.36;89.13;100344.00;5384454;26;20018;-74
2024/04/15 04:16:44;;;;;;;6.03;1.85;;;7.80;99.90;;;12.36;87.93;100334.94;5364091;26;20440;-74
2024/04/15 04:19:10;;;;;;;4.32;1.80;;;7.80;99.90;;;12.26;88.23;100340.16;5362995;26;20062;-73
2024/04/15 04:21:35;;;;;;;6.53;1.60;;;7.80;99.90;;;11.70;93.22;100326.69;5352680;26;20009;-74
2024/04/15 04:24:01;;;;;;;5.82;1.90;;;7.80;99.90;;;11.64;96.94;100336.66;5374082;26;20012;-73
2024/04/15 04:26:27;;;;;;;6.03;2.05;;;7.80;99.90;;;11.52;97.56;100339.31;5384053;26;20393;-74
2024/04/15 04:28:59;;;;;;;6.45;2.15;;;7.80;99.90;;;11.66;98.11;100326.31;5354603;26;20439;-74
2024/04/15 04:31:24;;;;;;;5.88;1.70;;;7.80;99.90;;;11.91;97.63;100326.16;5353420;26;20432;-74
2024/04/15 04:33:50;;;;;;;7.45;1.88;;;7.80;99.90;;;11.85;96.22;100318.06;5366141;26;20004;-74
2024/04/15 04:36:19;;;;;;;7.90;2.00;;;7.80;99.90;;;11.71;97.43;100317.44;5399480;26;20000;-74
2024/04/15 04:38:45;;;;;;;9.45;2.15;;;7.80;99.90;;;11.79;96.43;100322.56;5380781;26;20007;-74
2024/04/15 04:41:11;;;;;;;5.65;1.83;;;7.80;99.90;;;11.49;98.56;100331.59;5358907;26;20001;-74
2024/04/15 04:43:36;;;;;;;8.52;1.90;;;7.80;99.90;;;11.42;99.24;100323.47;5351359;26;20025;-73
2024/04/15 04:46:10;;;;;;;8.80;2.33;;;7.80;99.90;;;11.28;99.78;100316.53;5358305;26;20083;-73
2024/04/15 04:48:35;;;;;;;6.43;2.00;;;7.80;99.90;;;11.89;98.77;100309.16;5362392;26;20432;-74
2024/04/15 04:51:09;;;;;;;6.50;2.10;;;7.90;99.90;;;12.08;96.08;100312.69;5367117;26;20000;-76
2024/04/15 04:53:36;;;;;;;7.50;2.35;;;7.90;99.90;;;12.18;95.03;100312.09;5379358;26;20316;-75
2024/04/15 04:56:21;;;;;;;12.43;2.33;;;8.00;99.90;;;12.26;93.80;100305.44;5345771;26;20029;-77
2024/04/15 04:58:48;;;;;;;6.93;2.08;;;8.00;99.90;;;11.92;94.28;100296.91;5358253;26;20004;-76
2024/04/15 05:01:17;;;;;;;6.30;2.40;;;8.00;99.90;;;12.00;97.75;100314.88;5374764;26;20317;-75
2024/04/15 05:03:48;;;;;;;8.15;2.35;;;8.10;99.90;;;12.09;97.40;100305.31;5355787;26;20037;-75
2024/04/15 05:06:15;;;;;;;8.00;2.78;;;8.10;99.90;;;11.98;97.31;100306.09;5352769;26;19997;-74
2024/04/15 05:08:44;;;;;;;8.27;2.67;;;8.10;99.90;;;12.13;97.67;100303.75;5362701;26;20008;-76
2024/04/15 05:11:10;;;;;;;10.45;2.78;;;8.20;99.90;;;11.77;100.00;100302.81;5346788;26;20001;-75
2024/04/15 05:13:36;;;;;;;11.07;2.97;;;8.20;99.90;;;11.44;100.00;100293.22;5372606;26;20009;-75
2024/04/15 05:16:06;;;;;;;8.38;3.40;;;8.20;99.90;;;11.94;100.00;100306.56;5362450;26;20035;-75
2024/04/15 05:18:34;;;;;;;7.28;3.20;;;8.20;99.90;;;12.37;100.00;100301.03;5352198;26;20432;-74
2024/04/15 05:21:00;;;;;;;8.00;2.92;;;8.20;99.90;;;12.22;100.00;100304.25;5365834;26;20000;-75
2024/04/15 05:23:27;;;;;;;8.77;3.15;;;8.30;99.90;;;11.83;100.00;100288.22;5343562;26;20074;-74
2024/04/15 05:25:55;;;;;;;11.52;3.97;;;8.40;99.90;;;11.79;100.00;100287.03;5342270;26;20015;-74
2024/04/15 05:28:21;;;;;;;12.07;4.30;;;8.40;99.90;;;12.13;100.00;100287.34;5350593;26;20001;-75
2024/04/15 05:30:46;;;;;;;8.10;3.80;;;8.30;99.90;;;12.35;100.00;100284.03;5360256;26;20104;-74
2024/04/15 05:33:13;;;;;;;9.23;3.88;;;8.40;99.90;;;12.21;100.00;100292.50;5345437;26;20465;-75
2024/04/15 05:35:41;;;;;;;8.98;4.30;;;8.50;99.90;;;12.29;100.00;100279.53;5382677;26;20000;-75
2024/04/15 05:38:07;;;;;;;9.27;3.80;;;8.50;99.90;;;12.79;100.00;100273.53;5357873;26;20069;-74
2024/04/15 05:40:33;;;;;;;12.70;4.20;;;8.60;99.90;;;12.79;100.00;100268.06;5344521;26;20004;-74
2024/04/15 05:42:59;;;;;;;9.98;4.38;;;8.70;99.90;;;12.79;100.00;100280.91;5345640;26;20011;-74
2024/04/15 05:45:24;;;;;;;14.52;4.93;;;8.80;99.90;;;12.85;100.00;100262.69;5345571;26;19993;-74
2024/04/15 05:47:50;;;;;;;10.77;5.13;;;8.90;99.90;;;12.95;99.37;100265.63;5354937;26;20004;-74
2024/04/15 05:50:16;;;;;;;11.43;5.70;;;9.00;99.90;;;13.08;99.48;100268.13;5358976;26;20353;-74
2024/04/15 05:52:42;;;;;;;13.18;5.28;;;9.10;99.90;;;12.83;100.00;100273.06;5353818;26;20008;-74
2024/04/15 05:55:07;;;;;;;10.23;5.30;;;9.20;99.90;;;12.97;100.00;100268.97;5353591;26;20460;-75
2024/04/15 05:57:33;;;;;;;14.10;5.90;;;9.20;99.90;;;12.54;100.00;100262.03;5356211;26;20000;-74
2024/04/15 05:59:59;;;;;;;10.55;5.72;;;9.20;99.90;;;12.87;99.67;100257.81;5355749;26;20001;-74
2024/04/15 06:02:24;;;;;;;9.70;5.63;;;9.30;99.90;;;13.09;98.72;100261.56;5348577;26;20048;-75
2024/04/15 06:04:50;;;;;;;12.57;5.68;;;9.30;99.90;;;13.38;98.40;100253.34;5395233;26;20000;-74
2024/04/15 06:07:17;;;;;;;8.93;5.45;;;9.50;99.90;;;13.51;96.09;100237.69;5373467;26;20456;-75
2024/04/15 06:09:43;;;;;;;11.30;5.68;;;9.70;99.90;;;13.34;96.30;100234.91;5362060;26;19996;-74
2024/04/15 06:12:08;;;;;;;11.68;6.00;;;9.70;99.90;;;13.33;96.39;100245.03;5356859;26;20020;-74
2024/04/15 06:14:34;;;;;;;11.35;6.25;;;9.70;99.90;;;13.36;94.70;100222.63;5367486;26;20340;-75
2024/04/15 06:17:03;;;;;;;10.90;6.13;;;9.70;99.90;;;13.56;95.61;100237.81;5359558;26;20000;-75
2024/04/15 06:19:29;;;;;;;13.77;7.38;;;9.70;99.90;;;13.29;93.18;100216.47;5363620;26;19997;-74
2024/04/15 06:21:55;;;;;;;10.43;6.70;;;9.70;99.90;;;13.70;92.65;100215.56;5404874;26;20341;-75
2024/04/15 06:24:21;;;;;;;12.77;7.10;;;9.80;99.90;;;14.00;91.31;100219.88;5357651;26;20000;-74
2024/04/15 06:26:47;;;;;;;10.80;6.68;;;9.90;99.90;;;13.93;89.72;100215.41;5361624;26;20032;-75
2024/04/15 06:29:13;;;;;;;12.63;6.75;;;10.00;99.90;;;13.89;89.19;100216.97;5373268;26;19996;-74
2024/04/15 06:31:39;;;;;;;12.20;6.25;;;10.00;99.90;;;13.30;91.12;100206.34;5350898;26;20077;-74
2024/04/15 06:34:05;;;;;;;13.65;6.90;;;9.90;99.90;;;13.95;89.58;100215.97;5347407;26;20028;-73
2024/04/15 06:36:31;;;;;;;14.65;7.07;;;9.90;99.90;;;13.95;90.67;100207.75;5353489;26;20005;-73
2024/04/15 06:38:57;;;;;;;15.75;6.45;;;10.00;99.90;;;14.16;88.24;100194.34;5347967;26;19997;-74
2024/04/15 06:41:23;;;;;;;11.48;6.57;;;10.10;99.90;;;13.75;87.90;100175.38;5384688;26;20012;-75
2024/04/15 06:43:49;;;;;;;14.35;6.97;;;10.30;99.90;;;13.92;87.52;100182.72;5354337;26;19997;-74
2024/04/15 06:46:14;;;;;;;10.75;6.85;;;10.30;99.90;;;13.67;88.34;100167.56;5361923;26;20004;-74
2024/04/15 06:48:43;;;;;;;13.20;7.05;;;10.40;99.90;;;14.16;87.33;100174.31;5418260;26;20515;-74
2024/04/15 06:51:09;;;;;;;13.10;6.93;;;10.50;99.90;;;14.57;83.13;100163.03;5354351;26;20040;-75
2024/04/15 06:53:36;;;;;;;9.85;7.50;;;10.70;99.90;;;14.39;82.40;100145.84;5358578;26;20067;-74
2024/04/15 06:56:02;;;;;;;10.93;6.63;;;10.90;99.90;;;14.26;81.43;100154.41;5359302;26;20012;-74
2024/04/15 06:58:28;;;;;;;11.70;6.70;;;10.90;99.90;;;14.36;81.12;100157.31;5352165;26;19992;-74
2024/04/15 07:00:56;;;;;;;9.82;6.55;;;11.00;99.90;;;14.35;81.01;100147.44;5355865;26;20698;-73
2024/04/15 07:03:23;;;;;;;12.48;6.88;;;11.00;99.90;;;14.60;79.76;100148.84;5352395;26;20000;-76
2024/04/15 07:05:49;;;;;;;12.48;7.32;;;11.00;99.90;;;14.19;80.43;100138.97;5351808;26;20004;-74
2024/04/15 07:08:14;;;;;;;10.73;6.70;;;10.90;99.90;;;13.89;84.62;100145.69;5357113;26;20320;-74
2024/04/15 07:10:40;;;;;;;13.88;6.80;;;10.70;99.90;;;14.34;82.53;100138.34;5359571;26;20015;-75
2024/04/15 07:13:07;;;;;;;25.95;10.20;;;10.70;99.90;;;14.58;80.81;100131.75;5361407;26;20004;-74
2024/04/15 07:15:33;;;;;;;13.82;7.57;;;10.60;99.90;;;14.65;79.06;100129.69;5365534;26;20431;-75
2024/04/15 07:17:59;;;;;;;11.70;7.50;;;10.60;99.90;;;14.30;78.27;100120.75;5364610;26;20006;-74
2024/04/15 07:20:25;;;;;;;10.00;7.20;;;10.60;99.90;;;14.72;75.42;100108.38;5347069;26;20000;-74
2024/04/15 07:22:51;;;;;;;12.30;7.60;;;10.70;99.90;;;14.60;75.71;100115.91;5355923;26;19997;-74
2024/04/15 07:25:17;;;;;;;15.25;7.82;;;10.80;99.90;;;14.62;73.94;100100.00;5347761;26;20000;-74
2024/04/15 07:27:42;;;;;;;12.40;7.72;;;10.80;99.90;;;14.53;72.27;100105.09;5356930;26;20079;-74
2024/04/15 07:30:08;;;;;;;12.18;7.65;;;10.80;99.90;;;14.57;72.81;100108.16;5358059;26;20004;-72
2024/04/15 07:32:34;;;;;;;11.50;7.57;;;10.70;99.90;;;14.75;69.59;100099.59;5414831;26;20383;-73
2024/04/15 07:35:00;;;;;;;10.82;7.32;;;10.70;99.90;;;14.48;69.78;100094.88;5346921;26;20017;-75
2024/04/15 07:37:26;;;;;;;13.35;7.30;;;10.70;99.90;;;14.74;69.49;100100.69;5433036;26;19996;-74
2024/04/15 07:39:51;;;;;;;11.50;7.50;;;10.70;99.90;;;14.73;68.15;100084.50;5349801;26;20005;-75
2024/04/15 07:42:18;;;;;;;13.18;7.25;;;10.70;99.90;;;14.84;69.69;100085.41;5357484;26;20016;-74
2024/04/15 07:44:48;;;;;;;10.20;7.22;;;10.70;99.90;;;14.87;66.99;100079.44;5364891;26;20454;-75
2024/04/15 07:47:14;;;;;;;11.63;7.00;;;10.80;99.90;;;14.81;66.99;100070.31;5354476;26;20011;-74
2024/04/15 07:49:40;;;;;;;12.40;7.13;;;10.70;99.90;;;14.74;66.94;100069.69;5368438;26;20337;-76
2024/04/15 07:52:05;;;;;;;11.18;6.70;;;10.70;99.90;;;14.72;68.49;100069.94;5357330;26;20011;-74
2024/04/15 07:54:32;;;;;;;12.65;6.85;;;10.80;99.90;;;14.68;66.92;100061.34;5361556;26;20061;-75
2024/04/15 07:56:58;;;;;;;10.23;6.80;;;10.90;99.90;;;14.93;65.88;100057.22;5343989;26;19997;-74
2024/04/15 07:59:24;;;;;;;14.18;6.85;;;10.80;99.90;;;14.82;66.99;100050.81;5342467;26;20012;-75
2024/04/15 08:01:50;;;;;;;13.52;6.53;;;10.90;99.90;;;14.72;66.07;100045.22;5372124;26;20001;-75
2024/04/15 08:04:16;;;;;;;11.63;6.40;;;11.00;99.90;;;14.75;63.03;100035.66;5337100;26;20062;-74
2024/04/15 08:06:41;;;;;;;11.02;6.43;;;11.00;99.90;;;14.36;63.74;100025.63;5349721;26;20019;-74
2024/04/15 08:09:08;;;;;;;14.73;7.13;;;11.00;99.90;;;15.19;62.59;100040.97;5354914;26;20074;-74
2024/04/15 08:11:34;;;;;;;10.18;6.97;;;11.20;99.90;;;15.36;61.24;100015.25;5352309;26;20000;-74
2024/04/15 08:14:03;;;;;;;13.43;7.13;;;;;;;15.76;62.10;100035.84;5347065;26;20737;-74
2024/04/15 08:16:30;;;;;;;13.70;6.97;;;;;;;15.59;61.60;100027.78;5351611;26;20007;-74
2024/04/15 08:18:56;;;;;;;14.25;7.00;;;11.40;99.90;;;15.93;60.76;100012.88;5388071;26;20444;-74
2024/04/15 08:21:22;;;;;;;11.27;7.05;;;12.10;99.90;;;16.17;60.18;100009.66;5346730;26;20007;-75
2024/04/15 08:23:48;;;;;;;16.42;7.07;;;12.20;99.90;;;16.48;58.86;100010.56;5346901;26;20114;-74
2024/04/15 08:26:14;;;;;;;10.45;6.88;;;12.50;99.90;;;16.31;58.08;99994.31;5407994;26;20007;-74
2024/04/15 08:28:39;;;;;;;10.88;6.53;;;12.40;99.90;;;16.20;58.35;99985.19;5357321;26;20000;-74
2024/04/15 08:31:05;;;;;;;11.50;6.93;;;12.30;99.90;;;16.05;59.37;100004.38;5356208;26;19996;-74
2024/04/15 08:33:31;;;;;;;9.65;7.30;;;12.20;99.90;;;16.03;58.76;99995.56;5358978;26;20007;-75
2024/04/15 08:35:56;;;;;;;15.35;7.22;;;12.30;99.90;;;15.30;59.35;99983.34;5357653;26;19993;-75
2024/04/15 08:38:22;;;;;;;13.07;7.57;;;12.00;99.90;;;15.27;61.16;100001.19;5437219;26;20000;-75
2024/04/15 08:40:57;;;;;;;14.13;8.25;;;11.90;99.90;;;15.60;59.77;99990.13;5418941;26;20734;-75
2024/04/15 08:43:25;;;;;;;12.85;7.88;;;11.80;99.90;;;15.38;59.81;99996.59;5391281;26;20069;-76
2024/04/15 08:45:57;;;;;;;;;;;11.90;99.90;;;15.62;60.96;99997.00;5347860;26;20013;-75
2024/04/15 08:48:25;;;;;;;12.23;8.02;;;11.90;99.90;;;15.60;59.92;100001.94;5353469;26;19934;-75
2024/04/15 08:50:54;;;;;;;12.73;8.18;;;11.90;99.90;;;15.96;60.56;99996.66;5358263;26;20333;-76
2024/04/15 08:53:21;;;;;;;13.52;8.43;;;12.10;99.90;;;16.16;58.30;99978.53;5356850;26;20074;-77
2024/04/15 08:55:47;;;;;;;11.95;8.63;;;12.30;99.90;;;16.22;57.74;99993.16;5352945;26;20001;-76
2024/04/15 08:58:13;;;;;;;12.80;8.27;;;12.50;99.90;;;16.09;56.84;99961.47;5346259;26;20530;-76
2024/04/15 09:00:41;;;;;;;15.98;8.75;;;12.40;99.90;;;16.28;57.61;99977.50;5346874;26;20017;-77
2024/04/15 09:03:09;;;;;;;15.13;8.60;;;12.40;99.90;;;16.13;58.13;99975.53;5356067;26;19997;-76
2024/04/15 09:05:38;;;;;;;16.20;8.30;;;12.40;99.90;;;16.03;57.50;99974.38;5353111;26;20016;-76
2024/04/15 09:08:04;;;;;;;12.65;8.30;;;12.30;99.90;;;16.27;58.36;99986.84;5352046;26;20476;-76
2024/04/15 09:10:30;;;;;;;15.48;8.80;;;12.50;99.90;;;15.96;59.54;100004.91;5355895;26;20013;-76
2024/04/15 09:12:56;;;;;;;13.05;8.85;;;12.50;99.90;;;16.25;58.60;99990.69;5369583;26;20005;-76
2024/04/15 09:15:25;;;;;;;13.50;8.80;;;12.60;99.90;;;16.33;58.19;99988.50;5354377;26;20001;-77
2024/04/15 09:17:53;;;;;;;14.10;8.85;;;12.40;99.90;;;16.55;58.56;99980.00;5374391;26;19995;-75
2024/04/15 09:20:21;;;;;;;15.80;9.75;;;12.60;99.90;;;16.33;57.61;99981.09;5352924;26;20033;-77
2024/04/15 09:22:47;;;;;;;15.82;9.88;;;12.80;99.90;;;17.52;56.17;99977.53;5348808;26;20325;-77
2024/04/15 09:25:13;;;;;;;15.68;9.68;;;13.40;99.90;;;17.46;53.99;99956.56;5350616;26;20037;-77
2024/04/15 09:27:39;;;;;;;16.23;10.38;;;14.00;99.90;;;18.30;52.22;99931.09;5354509;26;20000;-76
2024/04/15 09:30:07;;;;;;;15.48;9.95;;;14.20;99.90;;;18.17;52.92;99928.97;5353004;26;20015;-77
2024/04/15 09:32:33;;;;;;;14.55;10.07;;;14.50;99.90;;;18.25;51.72;99922.88;5364423;26;20419;-78
2024/04/15 09:35:02;;;;;;;13.43;8.02;;;14.40;99.90;;;18.32;48.17;99876.44;5357880;26;20000;-76
2024/04/15 09:37:28;;;;;;;12.60;7.63;;;14.40;99.90;;;17.63;48.25;99849.53;5410847;26;19997;-76
2024/04/15 09:39:55;;;;;;;12.98;7.38;;;14.30;99.90;;;18.37;47.20;99834.16;5361116;26;20091;-75
2024/04/15 09:42:22;;;;;;;10.35;6.53;;;14.30;99.90;;;18.30;47.43;99833.66;5356014;26;20005;-76
2024/04/15 09:44:49;;;;;;;13.23;7.20;;;14.50;99.90;;;17.38;47.65;99804.41;5349190;26;20332;-75
2024/04/15 09:47:16;;;;;;;14.25;7.10;;;14.20;99.90;;;17.45;47.56;99815.16;5356105;26;20012;-75
2024/04/15 09:49:44;;;;;;;12.30;6.95;;;14.00;99.90;;;17.69;46.89;99797.91;5355757;26;20016;-75
2024/04/15 09:52:22;;;;;;;13.48;6.05;;;14.20;99.90;;;18.55;46.44;99813.28;5344237;26;20090;-76
2024/04/15 09:55:02;;;;;;;10.52;6.07;;;14.50;99.90;;;19.07;45.47;99797.00;5373490;26;20067;-76
2024/04/15 09:57:33;;;;;;;16.83;6.35;;;15.00;99.90;;;18.58;45.39;99778.75;5358163;26;20452;-76
2024/04/15 10:00:02;;;;;;;9.48;5.60;;;15.20;99.90;;;18.49;45.02;99775.78;5339216;26;19997;-77
2024/04/15 10:03:07;;;;;;;9.35;5.68;;;15.00;99.90;;;18.50;44.07;99769.16;5340161;26;20312;-78
2024/04/15 10:05:42;;;;;;;10.80;5.07;;;15.10;99.90;;;18.82;43.27;99774.03;5365203;26;20048;-76
2024/04/15 10:08:08;;;;;;;8.73;4.20;;;15.50;99.90;;;18.25;42.87;99738.72;5368510;26;19993;-75
2024/04/15 10:10:36;;;;;;;8.50;4.15;;;15.30;99.20;;;17.97;42.89;99727.34;5364864;26;20016;-75
2024/04/15 10:13:05;;;;;;;9.95;4.10;;;14.80;99.50;;;17.48;43.26;99714.47;5364270;26;20015;-76